sensor_id;sensor_type;location;lat;lon;timestamp;P1;durP1;ratioP1;P2;durP2;ratioP2
23573;SDS011;11965;53.640;10.050;2022-07-06T00:01:20;4.05;;;1.60;;
23573;SDS011;11965;53.640;10.050;2022-07-06T00:03:46;5.70;;;1.58;;
23573;SDS011;11965;53.640;10.050;2022-07-06T00:06:11;3.17;;;1.20;;
23573;SDS011;11965;53.640;10.050;2022-07-06T00:08:37;3.90;;;1.42;;
23573;SDS011;11965;53.640;10.050;2022-07-06T00:11:03;5.60;;;1.60;;
23573;SDS011;11965;53.640;10.050;2022-07-06T00:13:29;2.85;;;1.45;;
23573;SDS011;11965;53.640;10.050;2022-07-06T00:15:55;3.20;;;1.40;;
23573;SDS011;11965;53.640;10.050;2022-07-06T00:18:20;2.67;;;1.30;;
23573;SDS011;11965;53.640;10.050;2022-07-06T00:20:46;2.63;;;1.40;;
23573;SDS011;11965;53.640;10.050;2022-07-06T00:23:11;4.57;;;1.50;;
23573;SDS011;11965;53.640;10.050;2022-07-06T00:25:37;6.55;;;1.60;;
23573;SDS011;11965;53.640;10.050;2022-07-06T00:28:02;2.10;;;1.20;;
23573;SDS011;11965;53.640;10.050;2022-07-06T00:30:28;4.88;;;1.65;;
23573;SDS011;11965;53.640;10.050;2022-07-06T00:32:53;3.15;;;1.60;;
23573;SDS011;11965;53.640;10.050;2022-07-06T00:35:19;3.45;;;1.45;;
23573;SDS011;11965;53.640;10.050;2022-07-06T00:37:44;2.65;;;1.45;;
23573;SDS011;11965;53.640;10.050;2022-07-06T00:40:10;2.58;;;1.20;;
23573;SDS011;11965;53.640;10.050;2022-07-06T00:42:42;4.30;;;1.27;;
23573;SDS011;11965;53.640;10.050;2022-07-06T00:45:10;2.90;;;1.40;;
23573;SDS011;11965;53.640;10.050;2022-07-06T00:47:37;6.10;;;1.60;;
23573;SDS011;11965;53.640;10.050;2022-07-06T00:50:04;3.15;;;1.42;;
23573;SDS011;11965;53.640;10.050;2022-07-06T00:52:41;3.97;;;1.42;;
23573;SDS011;11965;53.640;10.050;2022-07-06T00:55:11;3.65;;;1.40;;
23573;SDS011;11965;53.640;10.050;2022-07-06T00:57:39;2.70;;;1.50;;
23573;SDS011;11965;53.640;10.050;2022-07-06T01:00:07;6.32;;;1.55;;
23573;SDS011;11965;53.640;10.050;2022-07-06T01:02:36;3.53;;;1.27;;
23573;SDS011;11965;53.640;10.050;2022-07-06T01:05:07;3.53;;;1.30;;
23573;SDS011;11965;53.640;10.050;2022-07-06T01:07:33;2.67;;;1.48;;
23573;SDS011;11965;53.640;10.050;2022-07-06T01:09:59;2.85;;;1.35;;
23573;SDS011;11965;53.640;10.050;2022-07-06T01:12:27;2.55;;;1.23;;
23573;SDS011;11965;53.640;10.050;2022-07-06T01:14:53;3.70;;;1.38;;
23573;SDS011;11965;53.640;10.050;2022-07-06T01:17:19;2.10;;;1.30;;
23573;SDS011;11965;53.640;10.050;2022-07-06T01:19:45;2.90;;;1.10;;
23573;SDS011;11965;53.640;10.050;2022-07-06T01:22:11;5.13;;;1.40;;
23573;SDS011;11965;53.640;10.050;2022-07-06T01:24:37;2.90;;;1.30;;
23573;SDS011;11965;53.640;10.050;2022-07-06T01:27:03;4.35;;;1.55;;
23573;SDS011;11965;53.640;10.050;2022-07-06T01:29:30;2.25;;;1.17;;
23573;SDS011;11965;53.640;10.050;2022-07-06T01:31:57;3.97;;;1.33;;
23573;SDS011;11965;53.640;10.050;2022-07-06T01:34:25;4.38;;;1.38;;
23573;SDS011;11965;53.640;10.050;2022-07-06T01:36:50;5.78;;;1.50;;
23573;SDS011;11965;53.640;10.050;2022-07-06T01:39:18;4.90;;;1.35;;
23573;SDS011;11965;53.640;10.050;2022-07-06T01:41:44;2.42;;;1.20;;
23573;SDS011;11965;53.640;10.050;2022-07-06T01:44:10;6.78;;;1.58;;
23573;SDS011;11965;53.640;10.050;2022-07-06T01:46:38;2.53;;;1.40;;
23573;SDS011;11965;53.640;10.050;2022-07-06T01:49:05;3.70;;;1.70;;
23573;SDS011;11965;53.640;10.050;2022-07-06T01:51:32;2.05;;;1.20;;
23573;SDS011;11965;53.640;10.050;2022-07-06T01:53:58;2.38;;;1.30;;
23573;SDS011;11965;53.640;10.050;2022-07-06T01:56:24;2.60;;;1.60;;
23573;SDS011;11965;53.640;10.050;2022-07-06T01:58:55;3.15;;;1.55;;
23573;SDS011;11965;53.640;10.050;2022-07-06T02:01:23;3.42;;;1.75;;
23573;SDS011;11965;53.640;10.050;2022-07-06T02:03:49;2.35;;;1.60;;
23573;SDS011;11965;53.640;10.050;2022-07-06T02:06:15;3.95;;;1.70;;
23573;SDS011;11965;53.640;10.050;2022-07-06T02:08:41;2.38;;;1.30;;
23573;SDS011;11965;53.640;10.050;2022-07-06T02:11:07;2.17;;;1.27;;
23573;SDS011;11965;53.640;10.050;2022-07-06T02:13:36;3.22;;;1.55;;
23573;SDS011;11965;53.640;10.050;2022-07-06T02:16:05;4.57;;;1.33;;
23573;SDS011;11965;53.640;10.050;2022-07-06T02:18:30;5.18;;;1.40;;
23573;SDS011;11965;53.640;10.050;2022-07-06T02:20:56;4.65;;;1.30;;
23573;SDS011;11965;53.640;10.050;2022-07-06T02:23:22;2.75;;;1.33;;
23573;SDS011;11965;53.640;10.050;2022-07-06T02:25:48;4.57;;;1.40;;
23573;SDS011;11965;53.640;10.050;2022-07-06T02:28:14;2.88;;;1.20;;
23573;SDS011;11965;53.640;10.050;2022-07-06T02:30:40;2.97;;;1.25;;
23573;SDS011;11965;53.640;10.050;2022-07-06T02:33:05;4.95;;;1.45;;
23573;SDS011;11965;53.640;10.050;2022-07-06T02:35:31;4.18;;;1.40;;
23573;SDS011;11965;53.640;10.050;2022-07-06T02:37:57;4.68;;;1.30;;
23573;SDS011;11965;53.640;10.050;2022-07-06T02:40:22;4.43;;;1.30;;
23573;SDS011;11965;53.640;10.050;2022-07-06T02:42:48;3.08;;;1.10;;
23573;SDS011;11965;53.640;10.050;2022-07-06T02:45:13;2.47;;;1.20;;
23573;SDS011;11965;53.640;10.050;2022-07-06T02:47:40;3.90;;;1.40;;
23573;SDS011;11965;53.640;10.050;2022-07-06T02:50:07;4.53;;;1.50;;
23573;SDS011;11965;53.640;10.050;2022-07-06T02:52:33;2.65;;;1.20;;
23573;SDS011;11965;53.640;10.050;2022-07-06T02:54:59;5.07;;;1.90;;
23573;SDS011;11965;53.640;10.050;2022-07-06T02:57:25;1.60;;;1.13;;
23573;SDS011;11965;53.640;10.050;2022-07-06T02:59:51;4.35;;;1.38;;
23573;SDS011;11965;53.640;10.050;2022-07-06T03:02:17;3.92;;;1.30;;
23573;SDS011;11965;53.640;10.050;2022-07-06T03:04:43;2.75;;;1.10;;
23573;SDS011;11965;53.640;10.050;2022-07-06T03:07:09;2.47;;;1.23;;
23573;SDS011;11965;53.640;10.050;2022-07-06T03:09:34;3.00;;;1.15;;
23573;SDS011;11965;53.640;10.050;2022-07-06T03:12:02;1.80;;;1.00;;
23573;SDS011;11965;53.640;10.050;2022-07-06T03:14:30;3.90;;;1.20;;
23573;SDS011;11965;53.640;10.050;2022-07-06T03:16:56;2.45;;;1.00;;
23573;SDS011;11965;53.640;10.050;2022-07-06T03:19:22;2.78;;;1.30;;
23573;SDS011;11965;53.640;10.050;2022-07-06T03:21:48;3.08;;;1.10;;
23573;SDS011;11965;53.640;10.050;2022-07-06T03:24:13;2.65;;;0.88;;
23573;SDS011;11965;53.640;10.050;2022-07-06T03:26:39;2.83;;;0.80;;
23573;SDS011;11965;53.640;10.050;2022-07-06T03:29:05;3.58;;;1.10;;
23573;SDS011;11965;53.640;10.050;2022-07-06T03:31:31;1.50;;;0.85;;
23573;SDS011;11965;53.640;10.050;2022-07-06T03:33:57;2.80;;;1.00;;
23573;SDS011;11965;53.640;10.050;2022-07-06T03:36:23;1.73;;;1.05;;
23573;SDS011;11965;53.640;10.050;2022-07-06T03:38:50;3.45;;;0.90;;
23573;SDS011;11965;53.640;10.050;2022-07-06T03:41:16;1.73;;;1.00;;
23573;SDS011;11965;53.640;10.050;2022-07-06T03:43:42;3.33;;;1.10;;
23573;SDS011;11965;53.640;10.050;2022-07-06T03:46:09;4.28;;;1.17;;
23573;SDS011;11965;53.640;10.050;2022-07-06T03:48:35;1.25;;;0.80;;
23573;SDS011;11965;53.640;10.050;2022-07-06T03:51:04;1.70;;;1.02;;
23573;SDS011;11965;53.640;10.050;2022-07-06T03:53:30;3.97;;;1.40;;
23573;SDS011;11965;53.640;10.050;2022-07-06T03:55:56;5.88;;;1.48;;
23573;SDS011;11965;53.640;10.050;2022-07-06T03:58:40;3.72;;;1.33;;
23573;SDS011;11965;53.640;10.050;2022-07-06T04:01:06;1.25;;;1.13;;
23573;SDS011;11965;53.640;10.050;2022-07-06T04:03:32;3.40;;;1.40;;
23573;SDS011;11965;53.640;10.050;2022-07-06T04:05:57;3.85;;;1.67;;
23573;SDS011;11965;53.640;10.050;2022-07-06T04:08:23;2.50;;;1.30;;
23573;SDS011;11965;53.640;10.050;2022-07-06T04:10:54;3.38;;;1.60;;
23573;SDS011;11965;53.640;10.050;2022-07-06T04:13:20;6.38;;;1.70;;
23573;SDS011;11965;53.640;10.050;2022-07-06T04:15:46;3.60;;;1.40;;
23573;SDS011;11965;53.640;10.050;2022-07-06T04:18:11;3.00;;;1.50;;
23573;SDS011;11965;53.640;10.050;2022-07-06T04:20:43;3.08;;;1.27;;
23573;SDS011;11965;53.640;10.050;2022-07-06T04:23:09;4.63;;;2.00;;
23573;SDS011;11965;53.640;10.050;2022-07-06T04:25:34;3.72;;;1.67;;
23573;SDS011;11965;53.640;10.050;2022-07-06T04:28:01;4.50;;;2.00;;
23573;SDS011;11965;53.640;10.050;2022-07-06T04:30:29;3.45;;;1.77;;
23573;SDS011;11965;53.640;10.050;2022-07-06T04:32:55;2.83;;;1.45;;
23573;SDS011;11965;53.640;10.050;2022-07-06T04:35:24;4.47;;;1.73;;
23573;SDS011;11965;53.640;10.050;2022-07-06T04:37:52;5.25;;;2.13;;
23573;SDS011;11965;53.640;10.050;2022-07-06T04:40:19;4.65;;;1.70;;
23573;SDS011;11965;53.640;10.050;2022-07-06T04:42:48;1.52;;;1.35;;
23573;SDS011;11965;53.640;10.050;2022-07-06T04:45:15;4.47;;;2.08;;
23573;SDS011;11965;53.640;10.050;2022-07-06T04:47:40;3.97;;;1.70;;
23573;SDS011;11965;53.640;10.050;2022-07-06T04:50:07;3.05;;;1.50;;
23573;SDS011;11965;53.640;10.050;2022-07-06T04:52:33;3.97;;;1.48;;
23573;SDS011;11965;53.640;10.050;2022-07-06T04:54:58;3.17;;;1.25;;
23573;SDS011;11965;53.640;10.050;2022-07-06T04:57:24;3.00;;;1.20;;
23573;SDS011;11965;53.640;10.050;2022-07-06T04:59:56;4.68;;;1.80;;
23573;SDS011;11965;53.640;10.050;2022-07-06T05:02:22;3.95;;;1.35;;
23573;SDS011;11965;53.640;10.050;2022-07-06T05:04:48;4.60;;;1.58;;
23573;SDS011;11965;53.640;10.050;2022-07-06T05:07:13;5.47;;;1.63;;
23573;SDS011;11965;53.640;10.050;2022-07-06T05:09:40;4.28;;;1.58;;
23573;SDS011;11965;53.640;10.050;2022-07-06T05:12:06;5.68;;;2.03;;
23573;SDS011;11965;53.640;10.050;2022-07-06T05:14:33;4.72;;;1.60;;
23573;SDS011;11965;53.640;10.050;2022-07-06T05:17:00;3.03;;;1.27;;
23573;SDS011;11965;53.640;10.050;2022-07-06T05:19:27;3.53;;;1.42;;
23573;SDS011;11965;53.640;10.050;2022-07-06T05:21:54;6.25;;;1.65;;
23573;SDS011;11965;53.640;10.050;2022-07-06T05:24:20;5.13;;;1.45;;
23573;SDS011;11965;53.640;10.050;2022-07-06T05:26:46;1.90;;;1.20;;
23573;SDS011;11965;53.640;10.050;2022-07-06T05:29:12;3.40;;;1.50;;
23573;SDS011;11965;53.640;10.050;2022-07-06T05:31:38;3.75;;;1.45;;
23573;SDS011;11965;53.640;10.050;2022-07-06T05:34:05;7.75;;;1.67;;
23573;SDS011;11965;53.640;10.050;2022-07-06T05:36:32;5.60;;;1.92;;
23573;SDS011;11965;53.640;10.050;2022-07-06T05:38:58;2.95;;;1.52;;
23573;SDS011;11965;53.640;10.050;2022-07-06T05:41:23;4.72;;;1.35;;
23573;SDS011;11965;53.640;10.050;2022-07-06T05:43:50;3.58;;;1.20;;
23573;SDS011;11965;53.640;10.050;2022-07-06T05:46:15;5.78;;;1.58;;
23573;SDS011;11965;53.640;10.050;2022-07-06T05:48:41;2.67;;;1.60;;
23573;SDS011;11965;53.640;10.050;2022-07-06T05:51:24;3.70;;;1.60;;
23573;SDS011;11965;53.640;10.050;2022-07-06T05:53:51;5.50;;;1.48;;
23573;SDS011;11965;53.640;10.050;2022-07-06T05:56:18;4.97;;;1.50;;
23573;SDS011;11965;53.640;10.050;2022-07-06T05:58:44;3.92;;;1.58;;
23573;SDS011;11965;53.640;10.050;2022-07-06T06:01:09;4.10;;;1.50;;
23573;SDS011;11965;53.640;10.050;2022-07-06T06:03:37;3.58;;;1.10;;
23573;SDS011;11965;53.640;10.050;2022-07-06T06:06:03;5.00;;;1.40;;
23573;SDS011;11965;53.640;10.050;2022-07-06T06:08:28;5.78;;;1.30;;
23573;SDS011;11965;53.640;10.050;2022-07-06T06:10:54;3.35;;;1.40;;
23573;SDS011;11965;53.640;10.050;2022-07-06T06:13:22;6.15;;;1.60;;
23573;SDS011;11965;53.640;10.050;2022-07-06T06:15:48;4.97;;;1.20;;
23573;SDS011;11965;53.640;10.050;2022-07-06T06:18:14;5.68;;;1.40;;
23573;SDS011;11965;53.640;10.050;2022-07-06T06:20:42;3.60;;;1.30;;
23573;SDS011;11965;53.640;10.050;2022-07-06T06:23:07;4.30;;;1.52;;
23573;SDS011;11965;53.640;10.050;2022-07-06T06:25:34;3.53;;;1.58;;
23573;SDS011;11965;53.640;10.050;2022-07-06T06:28:02;4.55;;;1.50;;
23573;SDS011;11965;53.640;10.050;2022-07-06T06:30:28;7.40;;;1.50;;
23573;SDS011;11965;53.640;10.050;2022-07-06T06:33:13;5.13;;;1.20;;
23573;SDS011;11965;53.640;10.050;2022-07-06T06:35:44;2.50;;;1.15;;
23573;SDS011;11965;53.640;10.050;2022-07-06T06:38:11;5.72;;;1.45;;
23573;SDS011;11965;53.640;10.050;2022-07-06T06:40:37;5.40;;;1.40;;
23573;SDS011;11965;53.640;10.050;2022-07-06T06:43:02;3.15;;;1.17;;
23573;SDS011;11965;53.640;10.050;2022-07-06T06:45:30;2.65;;;1.40;;
23573;SDS011;11965;53.640;10.050;2022-07-06T06:47:55;4.32;;;1.63;;
23573;SDS011;11965;53.640;10.050;2022-07-06T06:50:21;4.90;;;1.55;;
23573;SDS011;11965;53.640;10.050;2022-07-06T06:52:48;3.13;;;1.40;;
23573;SDS011;11965;53.640;10.050;2022-07-06T06:55:14;2.67;;;1.30;;
23573;SDS011;11965;53.640;10.050;2022-07-06T06:57:40;2.58;;;1.25;;
23573;SDS011;11965;53.640;10.050;2022-07-06T07:00:06;1.88;;;1.00;;
23573;SDS011;11965;53.640;10.050;2022-07-06T07:02:32;3.53;;;1.30;;
23573;SDS011;11965;53.640;10.050;2022-07-06T07:04:57;3.15;;;1.02;;
23573;SDS011;11965;53.640;10.050;2022-07-06T07:07:23;2.88;;;1.40;;
23573;SDS011;11965;53.640;10.050;2022-07-06T07:09:48;2.88;;;1.50;;
23573;SDS011;11965;53.640;10.050;2022-07-06T07:12:13;5.15;;;1.02;;
23573;SDS011;11965;53.640;10.050;2022-07-06T07:14:42;1.50;;;0.85;;
23573;SDS011;11965;53.640;10.050;2022-07-06T07:17:08;2.65;;;1.13;;
23573;SDS011;11965;53.640;10.050;2022-07-06T07:19:33;2.47;;;1.05;;
23573;SDS011;11965;53.640;10.050;2022-07-06T07:21:59;2.72;;;1.30;;
23573;SDS011;11965;53.640;10.050;2022-07-06T07:24:25;2.35;;;1.00;;
23573;SDS011;11965;53.640;10.050;2022-07-06T07:26:50;2.05;;;1.10;;
23573;SDS011;11965;53.640;10.050;2022-07-06T07:29:15;2.55;;;1.48;;
23573;SDS011;11965;53.640;10.050;2022-07-06T07:31:41;3.75;;;1.05;;
23573;SDS011;11965;53.640;10.050;2022-07-06T07:34:06;2.42;;;1.10;;
23573;SDS011;11965;53.640;10.050;2022-07-06T07:36:32;2.13;;;0.90;;
23573;SDS011;11965;53.640;10.050;2022-07-06T07:38:57;2.70;;;1.00;;
23573;SDS011;11965;53.640;10.050;2022-07-06T07:41:23;1.65;;;1.08;;
23573;SDS011;11965;53.640;10.050;2022-07-06T07:43:48;2.25;;;0.90;;
23573;SDS011;11965;53.640;10.050;2022-07-06T07:46:14;2.25;;;0.90;;
23573;SDS011;11965;53.640;10.050;2022-07-06T07:48:41;2.45;;;1.20;;
23573;SDS011;11965;53.640;10.050;2022-07-06T07:51:07;3.15;;;1.17;;
23573;SDS011;11965;53.640;10.050;2022-07-06T07:53:33;3.03;;;1.27;;
23573;SDS011;11965;53.640;10.050;2022-07-06T07:55:58;1.67;;;1.00;;
23573;SDS011;11965;53.640;10.050;2022-07-06T07:58:23;2.30;;;0.93;;
23573;SDS011;11965;53.640;10.050;2022-07-06T08:00:49;2.58;;;0.73;;
23573;SDS011;11965;53.640;10.050;2022-07-06T08:03:14;4.35;;;1.13;;
23573;SDS011;11965;53.640;10.050;2022-07-06T08:05:41;1.20;;;0.70;;
23573;SDS011;11965;53.640;10.050;2022-07-06T08:08:07;4.30;;;0.90;;
23573;SDS011;11965;53.640;10.050;2022-07-06T08:10:32;3.70;;;0.77;;
23573;SDS011;11965;53.640;10.050;2022-07-06T08:12:58;1.52;;;0.70;;
23573;SDS011;11965;53.640;10.050;2022-07-06T08:15:23;2.50;;;0.70;;
23573;SDS011;11965;53.640;10.050;2022-07-06T08:17:49;1.80;;;0.70;;
23573;SDS011;11965;53.640;10.050;2022-07-06T08:20:14;1.73;;;0.88;;
23573;SDS011;11965;53.640;10.050;2022-07-06T08:22:41;1.10;;;0.70;;
23573;SDS011;11965;53.640;10.050;2022-07-06T08:25:07;2.72;;;0.90;;
23573;SDS011;11965;53.640;10.050;2022-07-06T08:27:33;2.22;;;1.20;;
23573;SDS011;11965;53.640;10.050;2022-07-06T08:29:58;2.88;;;1.00;;
23573;SDS011;11965;53.640;10.050;2022-07-06T08:32:25;2.63;;;1.10;;
23573;SDS011;11965;53.640;10.050;2022-07-06T08:34:50;1.38;;;0.82;;
23573;SDS011;11965;53.640;10.050;2022-07-06T08:37:16;4.55;;;1.10;;
23573;SDS011;11965;53.640;10.050;2022-07-06T08:39:41;3.45;;;1.00;;
23573;SDS011;11965;53.640;10.050;2022-07-06T08:42:07;1.75;;;1.00;;
23573;SDS011;11965;53.640;10.050;2022-07-06T08:44:35;3.28;;;0.95;;
23573;SDS011;11965;53.640;10.050;2022-07-06T08:47:02;2.08;;;1.20;;
23573;SDS011;11965;53.640;10.050;2022-07-06T08:49:31;3.85;;;0.98;;
23573;SDS011;11965;53.640;10.050;2022-07-06T08:51:58;1.42;;;0.90;;
23573;SDS011;11965;53.640;10.050;2022-07-06T08:54:25;1.65;;;0.82;;
23573;SDS011;11965;53.640;10.050;2022-07-06T08:56:51;3.30;;;0.93;;
23573;SDS011;11965;53.640;10.050;2022-07-06T08:59:17;3.72;;;0.95;;
23573;SDS011;11965;53.640;10.050;2022-07-06T09:01:43;1.48;;;0.82;;
23573;SDS011;11965;53.640;10.050;2022-07-06T09:04:11;2.90;;;1.05;;
23573;SDS011;11965;53.640;10.050;2022-07-06T09:06:38;1.30;;;0.90;;
23573;SDS011;11965;53.640;10.050;2022-07-06T09:09:07;1.80;;;1.00;;
23573;SDS011;11965;53.640;10.050;2022-07-06T09:11:34;1.88;;;0.80;;
23573;SDS011;11965;53.640;10.050;2022-07-06T09:14:01;1.65;;;0.90;;
23573;SDS011;11965;53.640;10.050;2022-07-06T09:16:27;1.05;;;0.80;;
23573;SDS011;11965;53.640;10.050;2022-07-06T09:18:54;3.42;;;1.67;;
23573;SDS011;11965;53.640;10.050;2022-07-06T09:21:30;2.75;;;0.80;;
23573;SDS011;11965;53.640;10.050;2022-07-06T09:23:58;1.92;;;0.82;;
23573;SDS011;11965;53.640;10.050;2022-07-06T09:28:56;1.60;;;0.73;;
23573;SDS011;11965;53.640;10.050;2022-07-06T09:31:22;1.88;;;0.75;;
23573;SDS011;11965;53.640;10.050;2022-07-06T09:33:58;2.55;;;0.80;;
23573;SDS011;11965;53.640;10.050;2022-07-06T09:36:46;1.58;;;0.75;;
23573;SDS011;11965;53.640;10.050;2022-07-06T09:39:24;1.45;;;0.60;;
23573;SDS011;11965;53.640;10.050;2022-07-06T09:41:55;0.68;;;0.50;;
23573;SDS011;11965;53.640;10.050;2022-07-06T09:44:25;0.90;;;0.57;;
23573;SDS011;11965;53.640;10.050;2022-07-06T09:47:00;2.85;;;0.77;;
23573;SDS011;11965;53.640;10.050;2022-07-06T09:49:28;1.45;;;0.60;;
23573;SDS011;11965;53.640;10.050;2022-07-06T09:51:55;2.42;;;0.70;;
23573;SDS011;11965;53.640;10.050;2022-07-06T09:54:22;3.35;;;0.95;;
23573;SDS011;11965;53.640;10.050;2022-07-06T09:56:49;1.67;;;0.80;;
23573;SDS011;11965;53.640;10.050;2022-07-06T09:59:17;1.75;;;0.52;;
23573;SDS011;11965;53.640;10.050;2022-07-06T10:01:48;1.38;;;0.60;;
23573;SDS011;11965;53.640;10.050;2022-07-06T10:04:17;0.85;;;0.50;;
23573;SDS011;11965;53.640;10.050;2022-07-06T10:06:45;2.45;;;0.68;;
23573;SDS011;11965;53.640;10.050;2022-07-06T10:09:12;1.92;;;0.52;;
23573;SDS011;11965;53.640;10.050;2022-07-06T10:11:46;1.30;;;0.50;;
23573;SDS011;11965;53.640;10.050;2022-07-06T10:14:17;1.45;;;0.50;;
23573;SDS011;11965;53.640;10.050;2022-07-06T10:16:46;1.33;;;0.50;;
23573;SDS011;11965;53.640;10.050;2022-07-06T10:19:13;2.13;;;0.60;;
23573;SDS011;11965;53.640;10.050;2022-07-06T10:21:41;2.03;;;0.50;;
23573;SDS011;11965;53.640;10.050;2022-07-06T10:24:08;2.00;;;0.45;;
23573;SDS011;11965;53.640;10.050;2022-07-06T10:26:36;1.20;;;0.57;;
23573;SDS011;11965;53.640;10.050;2022-07-06T10:29:02;2.03;;;0.80;;
23573;SDS011;11965;53.640;10.050;2022-07-06T10:31:29;1.70;;;0.40;;
23573;SDS011;11965;53.640;10.050;2022-07-06T10:33:56;2.58;;;0.63;;
23573;SDS011;11965;53.640;10.050;2022-07-06T10:36:24;1.05;;;0.40;;
23573;SDS011;11965;53.640;10.050;2022-07-06T10:38:51;1.42;;;0.47;;
23573;SDS011;11965;53.640;10.050;2022-07-06T10:41:17;2.08;;;0.60;;
23573;SDS011;11965;53.640;10.050;2022-07-06T10:43:55;2.30;;;0.63;;
23573;SDS011;11965;53.640;10.050;2022-07-06T10:46:22;2.28;;;0.50;;
23573;SDS011;11965;53.640;10.050;2022-07-06T10:48:49;2.22;;;0.50;;
23573;SDS011;11965;53.640;10.050;2022-07-06T10:51:23;1.20;;;0.43;;
23573;SDS011;11965;53.640;10.050;2022-07-06T10:54:00;2.38;;;0.50;;
23573;SDS011;11965;53.640;10.050;2022-07-06T10:56:32;1.75;;;0.60;;
23573;SDS011;11965;53.640;10.050;2022-07-06T11:04:41;1.42;;;0.52;;
23573;SDS011;11965;53.640;10.050;2022-07-06T11:07:16;2.90;;;0.57;;
23573;SDS011;11965;53.640;10.050;2022-07-06T11:10:16;1.80;;;0.77;;
23573;SDS011;11965;53.640;10.050;2022-07-06T11:12:35;2.20;;;0.85;;
23573;SDS011;11965;53.640;10.050;2022-07-06T11:15:02;2.45;;;0.80;;
23573;SDS011;11965;53.640;10.050;2022-07-06T11:17:28;3.08;;;1.23;;
23573;SDS011;11965;53.640;10.050;2022-07-06T11:19:55;5.03;;;1.20;;
23573;SDS011;11965;53.640;10.050;2022-07-06T11:22:22;2.10;;;0.80;;
23573;SDS011;11965;53.640;10.050;2022-07-06T11:24:49;3.33;;;0.80;;
23573;SDS011;11965;53.640;10.050;2022-07-06T11:27:22;3.58;;;0.75;;
23573;SDS011;11965;53.640;10.050;2022-07-06T11:29:47;1.50;;;0.50;;
23573;SDS011;11965;53.640;10.050;2022-07-06T11:32:13;1.80;;;0.80;;
23573;SDS011;11965;53.640;10.050;2022-07-06T11:34:40;2.80;;;0.60;;
23573;SDS011;11965;53.640;10.050;2022-07-06T11:37:09;3.22;;;0.93;;
23573;SDS011;11965;53.640;10.050;2022-07-06T11:39:39;2.50;;;0.80;;
23573;SDS011;11965;53.640;10.050;2022-07-06T11:42:07;1.90;;;0.63;;
23573;SDS011;11965;53.640;10.050;2022-07-06T11:44:34;2.42;;;0.68;;
23573;SDS011;11965;53.640;10.050;2022-07-06T11:47:00;2.67;;;0.75;;
23573;SDS011;11965;53.640;10.050;2022-07-06T11:49:32;3.10;;;0.50;;
23573;SDS011;11965;53.640;10.050;2022-07-06T11:52:05;2.60;;;0.65;;
23573;SDS011;11965;53.640;10.050;2022-07-06T11:54:36;3.97;;;0.73;;
23573;SDS011;11965;53.640;10.050;2022-07-06T11:57:02;0.80;;;0.40;;
23573;SDS011;11965;53.640;10.050;2022-07-06T11:59:32;2.38;;;0.50;;
23573;SDS011;11965;53.640;10.050;2022-07-06T12:02:04;1.90;;;0.88;;
23573;SDS011;11965;53.640;10.050;2022-07-06T12:04:30;2.33;;;0.45;;
23573;SDS011;11965;53.640;10.050;2022-07-06T12:07:13;1.42;;;0.50;;
23573;SDS011;11965;53.640;10.050;2022-07-06T12:09:41;5.10;;;0.88;;
23573;SDS011;11965;53.640;10.050;2022-07-06T12:12:09;2.88;;;0.70;;
23573;SDS011;11965;53.640;10.050;2022-07-06T12:14:37;1.35;;;0.60;;
23573;SDS011;11965;53.640;10.050;2022-07-06T12:17:05;3.08;;;0.50;;
23573;SDS011;11965;53.640;10.050;2022-07-06T12:19:38;2.13;;;0.60;;
23573;SDS011;11965;53.640;10.050;2022-07-06T12:22:05;1.15;;;0.57;;
23573;SDS011;11965;53.640;10.050;2022-07-06T12:24:33;2.50;;;0.55;;
23573;SDS011;11965;53.640;10.050;2022-07-06T12:27:09;2.58;;;0.50;;
23573;SDS011;11965;53.640;10.050;2022-07-06T12:29:36;1.38;;;0.30;;
23573;SDS011;11965;53.640;10.050;2022-07-06T12:32:02;3.83;;;0.38;;
23573;SDS011;11965;53.640;10.050;2022-07-06T12:34:29;1.58;;;0.35;;
23573;SDS011;11965;53.640;10.050;2022-07-06T12:37:05;0.30;;;0.28;;
23573;SDS011;11965;53.640;10.050;2022-07-06T12:39:40;4.00;;;0.60;;
23573;SDS011;11965;53.640;10.050;2022-07-06T12:42:09;1.08;;;0.50;;
23573;SDS011;11965;53.640;10.050;2022-07-06T12:44:41;2.85;;;0.45;;
23573;SDS011;11965;53.640;10.050;2022-07-06T12:47:11;0.90;;;0.40;;
23573;SDS011;11965;53.640;10.050;2022-07-06T12:49:38;1.65;;;0.40;;
23573;SDS011;11965;53.640;10.050;2022-07-06T12:52:08;1.00;;;0.30;;
23573;SDS011;11965;53.640;10.050;2022-07-06T12:57:16;3.05;;;0.60;;
23573;SDS011;11965;53.640;10.050;2022-07-06T13:02:21;1.27;;;0.35;;
23573;SDS011;11965;53.640;10.050;2022-07-06T13:05:09;1.20;;;0.40;;
23573;SDS011;11965;53.640;10.050;2022-07-06T13:07:38;1.65;;;0.45;;
23573;SDS011;11965;53.640;10.050;2022-07-06T13:10:09;0.73;;;0.50;;
23573;SDS011;11965;53.640;10.050;2022-07-06T13:12:37;1.45;;;0.52;;
23573;SDS011;11965;53.640;10.050;2022-07-06T13:15:05;1.83;;;0.50;;
23573;SDS011;11965;53.640;10.050;2022-07-06T13:17:33;1.48;;;0.50;;
23573;SDS011;11965;53.640;10.050;2022-07-06T13:19:59;1.42;;;0.57;;
23573;SDS011;11965;53.640;10.050;2022-07-06T13:22:24;1.48;;;0.40;;
23573;SDS011;11965;53.640;10.050;2022-07-06T13:24:50;2.05;;;0.47;;
23573;SDS011;11965;53.640;10.050;2022-07-06T13:27:15;2.47;;;0.40;;
23573;SDS011;11965;53.640;10.050;2022-07-06T13:29:41;1.30;;;0.45;;
23573;SDS011;11965;53.640;10.050;2022-07-06T13:32:07;1.77;;;0.40;;
23573;SDS011;11965;53.640;10.050;2022-07-06T13:34:33;1.13;;;0.50;;
23573;SDS011;11965;53.640;10.050;2022-07-06T13:37:00;1.48;;;0.43;;
23573;SDS011;11965;53.640;10.050;2022-07-06T13:39:26;2.15;;;0.57;;
23573;SDS011;11965;53.640;10.050;2022-07-06T13:41:52;1.65;;;0.60;;
23573;SDS011;11965;53.640;10.050;2022-07-06T13:44:19;2.75;;;0.73;;
23573;SDS011;11965;53.640;10.050;2022-07-06T13:46:44;3.38;;;0.70;;
23573;SDS011;11965;53.640;10.050;2022-07-06T13:49:11;1.77;;;0.75;;
23573;SDS011;11965;53.640;10.050;2022-07-06T13:51:37;3.05;;;1.10;;
23573;SDS011;11965;53.640;10.050;2022-07-06T13:54:03;2.35;;;0.80;;
23573;SDS011;11965;53.640;10.050;2022-07-06T13:56:29;1.75;;;0.65;;
23573;SDS011;11965;53.640;10.050;2022-07-06T13:58:55;2.80;;;1.00;;
23573;SDS011;11965;53.640;10.050;2022-07-06T14:01:21;1.42;;;0.80;;
23573;SDS011;11965;53.640;10.050;2022-07-06T14:03:47;2.42;;;1.15;;
23573;SDS011;11965;53.640;10.050;2022-07-06T14:06:13;2.72;;;0.98;;
23573;SDS011;11965;53.640;10.050;2022-07-06T14:08:40;2.25;;;0.82;;
23573;SDS011;11965;53.640;10.050;2022-07-06T14:11:06;1.73;;;0.77;;
23573;SDS011;11965;53.640;10.050;2022-07-06T14:13:33;3.08;;;1.17;;
23573;SDS011;11965;53.640;10.050;2022-07-06T14:15:59;1.85;;;0.80;;
23573;SDS011;11965;53.640;10.050;2022-07-06T14:18:24;2.15;;;0.88;;
23573;SDS011;11965;53.640;10.050;2022-07-06T14:20:50;1.30;;;0.60;;
23573;SDS011;11965;53.640;10.050;2022-07-06T14:23:19;1.70;;;0.43;;
23573;SDS011;11965;53.640;10.050;2022-07-06T14:25:46;1.83;;;0.57;;
23573;SDS011;11965;53.640;10.050;2022-07-06T14:28:12;1.73;;;0.38;;
23573;SDS011;11965;53.640;10.050;2022-07-06T14:30:38;1.60;;;0.35;;
23573;SDS011;11965;53.640;10.050;2022-07-06T14:33:05;1.73;;;0.60;;
23573;SDS011;11965;53.640;10.050;2022-07-06T14:38:00;1.33;;;0.35;;
23573;SDS011;11965;53.640;10.050;2022-07-06T14:40:27;1.05;;;0.40;;
23573;SDS011;11965;53.640;10.050;2022-07-06T14:42:53;1.33;;;0.38;;
23573;SDS011;11965;53.640;10.050;2022-07-06T14:45:18;1.55;;;0.50;;
23573;SDS011;11965;53.640;10.050;2022-07-06T14:47:44;0.40;;;0.35;;
23573;SDS011;11965;53.640;10.050;2022-07-06T14:50:09;4.38;;;0.45;;